createdAt,value
2019-03-03T00:03:34.187Z,82.00
2019-03-03T00:06:03.097Z,83.00
2019-03-03T00:08:31.985Z,83.50
2019-03-03T00:11:00.766Z,83.80
2019-03-03T00:13:29.630Z,84.10
2019-03-03T00:15:58.735Z,83.00
2019-03-03T00:18:27.591Z,84.60
2019-03-03T00:20:56.800Z,83.00
2019-03-03T00:25:53.988Z,83.80
2019-03-03T00:28:22.877Z,85.50
2019-03-03T00:30:52.068Z,85.90
2019-03-03T00:33:20.940Z,86.00
2019-03-03T00:35:49.769Z,85.90
2019-03-03T00:38:26.724Z,86.30
2019-03-03T00:41:17.512Z,86.10
2019-03-03T00:44:02.321Z,86.60
2019-03-03T00:49:39.567Z,87.40
2019-03-03T00:52:39.651Z,88.40
2019-03-03T00:55:26.217Z,88.60
2019-03-03T00:58:13.335Z,88.90
2019-03-03T01:00:51.001Z,89.20
2019-03-03T01:03:39.126Z,89.10
2019-03-03T01:06:37.678Z,89.80
2019-03-03T01:09:37.791Z,89.30
2019-03-03T01:12:24.350Z,87.80
2019-03-03T01:15:17.905Z,88.80
2019-03-03T01:18:01.967Z,88.20
2019-03-03T01:20:36.347Z,88.70
2019-03-03T01:23:24.207Z,89.50
2019-03-03T01:25:52.972Z,89.20
2019-03-03T01:28:21.709Z,89.90
2019-03-03T01:30:50.781Z,90.20
2019-03-03T01:33:19.629Z,90.20
2019-03-03T01:35:48.513Z,90.00
2019-03-03T01:38:17.331Z,90.20
2019-03-03T01:40:46.130Z,89.50
2019-03-03T01:45:43.375Z,89.90
2019-03-03T01:48:12.406Z,90.20
2019-03-03T01:50:41.158Z,90.20
2019-03-03T01:53:09.935Z,90.10
2019-03-03T01:55:38.671Z,90.00
2019-03-03T01:58:07.421Z,89.20
2019-03-03T02:00:36.214Z,87.70
2019-03-03T02:03:05.017Z,88.70
2019-03-03T02:05:33.800Z,89.00
2019-03-03T02:08:02.605Z,88.90
2019-03-03T02:10:31.401Z,89.10
2019-03-03T02:13:00.161Z,88.50
2019-03-03T02:15:28.901Z,89.00
2019-03-03T02:17:57.742Z,88.80
2019-03-03T02:20:26.717Z,88.80
2019-03-03T02:22:55.829Z,86.90
2019-03-03T02:27:53.438Z,86.80
2019-03-03T02:30:22.479Z,87.50
2019-03-03T02:32:51.303Z,87.50
2019-03-03T02:35:20.114Z,87.30
2019-03-03T02:37:48.843Z,86.70
2019-03-03T02:40:17.832Z,86.40
2019-03-03T02:42:47.600Z,86.20
2019-03-03T02:45:16.429Z,85.30
2019-03-03T02:50:13.759Z,85.00
2019-03-03T02:52:42.544Z,85.90
2019-03-03T02:55:12.313Z,85.70
2019-03-03T02:57:41.067Z,86.20
2019-03-03T03:00:14.089Z,85.30
2019-03-03T03:02:47.956Z,85.30
2019-03-03T03:05:21.738Z,85.60
2019-03-03T03:07:55.161Z,85.70
2019-03-03T03:13:48.939Z,85.10
2019-03-03T03:16:32.650Z,85.60
2019-03-03T03:19:08.470Z,85.00
2019-03-03T03:21:50.907Z,85.50
2019-03-03T03:24:27.857Z,86.10
2019-03-03T03:27:16.067Z,85.30
2019-03-03T03:30:02.789Z,85.40
2019-03-03T03:32:56.989Z,84.60
2019-03-03T03:35:30.708Z,83.30
2019-03-03T03:40:52.971Z,82.30
2019-03-03T03:43:39.470Z,84.20
2019-03-03T03:46:30.427Z,83.80
2019-03-03T03:49:24.683Z,83.80
2019-03-03T03:52:15.946Z,84.20
2019-03-03T03:55:02.594Z,84.00
2019-03-03T03:57:40.580Z,84.00
2019-03-03T04:00:31.796Z,84.00
2019-03-03T04:03:25.676Z,83.40
2019-03-03T04:06:09.931Z,82.00
2019-03-03T04:11:37.314Z,82.00
2019-03-03T04:14:32.229Z,82.90
2019-03-03T04:17:18.813Z,83.00
2019-03-03T04:20:03.852Z,82.60
2019-03-03T04:22:47.724Z,83.00
2019-03-03T04:25:33.011Z,83.00
2019-03-03T04:28:12.401Z,81.80
2019-03-03T04:33:41.996Z,82.00
2019-03-03T04:36:28.471Z,82.90
2019-03-03T04:39:10.559Z,82.80
2019-03-03T04:41:57.280Z,82.40
2019-03-03T04:44:45.106Z,82.00
2019-03-03T04:47:22.510Z,81.80
2019-03-03T04:50:13.258Z,83.00
2019-03-03T04:52:50.691Z,81.80
2019-03-03T05:04:09.078Z,81.10
2019-03-03T05:06:49.940Z,81.70
2019-03-03T05:09:28.183Z,82.30
2019-03-03T05:12:40.665Z,81.90
2019-03-03T05:15:33.282Z,82.20
2019-03-03T05:18:13.494Z,82.30
2019-03-03T05:20:47.047Z,83.60
2019-03-03T05:23:15.885Z,83.60
2019-03-03T05:25:44.989Z,83.00
2019-03-03T05:30:42.339Z,82.90
2019-03-03T05:33:11.114Z,83.80
2019-03-03T05:35:39.885Z,83.80
2019-03-03T05:38:08.639Z,83.60
2019-03-03T05:40:37.778Z,83.00
2019-03-03T05:43:06.598Z,82.70
2019-03-03T05:45:35.470Z,82.40
2019-03-03T05:48:04.290Z,82.10
2019-03-03T05:53:01.534Z,82.30
2019-03-03T05:55:30.347Z,83.40
2019-03-03T05:57:59.302Z,83.70
2019-03-03T06:00:28.162Z,84.00
2019-03-03T06:02:56.922Z,84.60
2019-03-03T06:05:26.023Z,84.70
2019-03-03T06:07:54.918Z,84.30
2019-03-03T06:10:23.841Z,83.50
2019-03-03T06:15:21.005Z,83.00
2019-03-03T06:17:49.733Z,83.30
2019-03-03T06:20:18.518Z,83.50
2019-03-03T06:22:47.339Z,84.50
2019-03-03T06:25:16.185Z,85.40
2019-03-03T06:27:45.096Z,85.90
2019-03-03T06:30:14.261Z,85.70
2019-03-03T06:32:43.110Z,85.20
2019-03-03T06:37:40.243Z,85.10
2019-03-03T06:40:09.656Z,86.20
2019-03-03T06:42:38.441Z,86.50
2019-03-03T06:45:08.356Z,86.80
2019-03-03T06:47:37.139Z,87.20
2019-03-03T06:50:07.687Z,87.70
2019-03-03T06:52:36.446Z,88.00
2019-03-03T06:55:05.615Z,87.70
2019-03-03T07:00:02.704Z,87.50
2019-03-03T07:02:31.579Z,88.20
2019-03-03T07:05:00.372Z,88.00
2019-03-03T07:07:29.337Z,88.30
2019-03-03T07:09:58.231Z,88.40
2019-03-03T07:12:27.183Z,88.40
2019-03-03T07:14:56.049Z,87.40
2019-03-03T07:17:24.866Z,84.70
2019-03-03T07:22:22.405Z,83.70
2019-03-03T07:24:51.286Z,82.50
2019-03-03T07:27:20.107Z,80.80
2019-03-03T07:29:48.891Z,80.10
2019-03-03T07:32:18.042Z,77.30
2019-03-03T07:34:47.165Z,76.50
2019-03-03T07:37:16.423Z,72.50
2019-03-03T07:39:45.260Z,70.80
2019-03-03T07:44:43.153Z,71.20
2019-03-03T07:47:12.418Z,70.90
2019-03-03T07:49:41.248Z,71.00
2019-03-03T07:52:10.022Z,70.90
2019-03-03T07:54:38.735Z,70.50
2019-03-03T07:57:07.498Z,69.30
2019-03-03T07:59:36.231Z,68.20
2019-03-03T08:04:33.876Z,67.20
2019-03-03T08:07:02.751Z,63.70
2019-03-03T08:09:31.654Z,65.30
2019-03-03T08:12:00.620Z,62.60
2019-03-03T08:14:29.589Z,61.10
2019-03-03T08:16:59.015Z,60.10
2019-03-03T08:19:27.990Z,58.10
2019-03-03T08:21:56.904Z,55.20
2019-03-03T08:26:54.266Z,54.00
2019-03-03T08:29:23.124Z,53.00
2019-03-03T08:31:51.946Z,53.20
2019-03-03T08:34:20.807Z,53.30
2019-03-03T08:36:49.790Z,51.80
2019-03-03T08:39:18.678Z,51.20
2019-03-03T08:41:51.289Z,51.50
2019-03-03T08:44:23.769Z,49.90
2019-03-03T08:55:49.156Z,50.20
2019-03-03T08:58:40.631Z,50.20
2019-03-03T09:01:31.698Z,50.20
2019-03-03T09:04:16.650Z,50.80
2019-03-03T09:07:07.179Z,50.00
2019-03-03T09:09:52.075Z,49.60
2019-03-03T09:12:43.318Z,49.40
2019-03-03T09:15:29.952Z,49.00
2019-03-03T09:18:16.810Z,49.50
2019-03-03T09:20:54.846Z,48.10
2019-03-03T09:26:36.760Z,48.10
2019-03-03T09:29:27.732Z,48.10
2019-03-03T09:32:18.404Z,48.30
2019-03-03T09:35:15.151Z,47.70
2019-03-03T09:37:52.938Z,47.00
2019-03-03T09:40:27.882Z,47.30
2019-03-03T09:43:14.440Z,46.80
2019-03-03T09:46:11.419Z,46.10
2019-03-03T09:48:59.285Z,46.00
2019-03-03T09:54:40.856Z,45.80
2019-03-03T09:57:28.151Z,45.60
2019-03-03T10:00:06.778Z,45.30
2019-03-03T10:02:48.158Z,44.30
2019-03-03T10:05:36.398Z,44.80
2019-03-03T10:08:18.715Z,43.20
2019-03-03T10:11:09.235Z,44.20
2019-03-03T10:13:46.820Z,44.10
2019-03-03T10:16:26.013Z,43.70
2019-03-03T10:21:58.732Z,43.40
2019-03-03T10:24:46.543Z,44.40
2019-03-03T10:27:23.543Z,43.60
2019-03-03T10:30:10.348Z,41.60
2019-03-03T10:33:07.213Z,41.70
2019-03-03T10:35:56.338Z,41.90
2019-03-03T10:38:36.340Z,43.50
2019-03-03T10:41:24.006Z,42.30
2019-03-03T10:44:27.194Z,42.70
2019-03-03T10:47:11.953Z,41.20
2019-03-03T10:49:49.316Z,41.80
2019-03-03T10:52:43.105Z,42.30
2019-03-03T10:55:37.005Z,40.90
2019-03-03T10:58:21.714Z,42.00
2019-03-03T11:01:17.326Z,43.00
2019-03-03T11:03:53.026Z,41.20
2019-03-03T11:06:46.842Z,40.30
2019-03-03T11:09:50.586Z,43.80
2019-03-03T11:18:31.800Z,39.90
2019-03-03T11:21:16.957Z,41.60
2019-03-03T11:23:51.837Z,40.40
2019-03-03T11:26:39.660Z,40.30
2019-03-03T11:29:13.238Z,41.20
2019-03-03T11:32:07.306Z,41.70
2019-03-03T11:35:10.532Z,41.70
2019-03-03T11:37:57.125Z,41.10
2019-03-03T11:40:43.865Z,42.00
2019-03-03T11:43:43.837Z,40.60
2019-03-03T11:52:35.225Z,40.10
2019-03-03T11:55:21.835Z,40.70
2019-03-03T11:57:57.642Z,40.40
2019-03-03T12:00:41.077Z,40.70
2019-03-03T12:03:27.774Z,41.30
2019-03-03T12:06:14.027Z,41.00
2019-03-03T12:09:01.870Z,41.50
2019-03-03T12:11:48.855Z,41.70
2019-03-03T12:17:51.945Z,40.70
2019-03-03T12:23:21.692Z,40.60
2019-03-03T12:26:28.143Z,40.80
2019-03-03T12:29:07.665Z,41.40
2019-03-03T12:31:50.725Z,41.80
2019-03-03T12:34:47.259Z,41.40
2019-03-03T12:37:37.963Z,41.20
2019-03-03T12:40:18.916Z,40.80
2019-03-03T12:43:05.440Z,40.60
2019-03-03T12:45:47.670Z,39.80
2019-03-03T12:51:22.115Z,40.10
2019-03-03T12:54:08.671Z,40.70
2019-03-03T12:56:59.647Z,39.80
2019-03-03T12:59:37.022Z,38.50
2019-03-03T13:02:16.827Z,39.60
2019-03-03T13:05:03.642Z,40.30
2019-03-03T13:07:47.870Z,39.50
2019-03-03T13:10:41.847Z,39.00
2019-03-03T13:16:25.967Z,38.00
2019-03-03T13:19:08.121Z,39.70
2019-03-03T13:22:05.682Z,39.40
2019-03-03T13:24:53.621Z,39.50
2019-03-03T13:27:38.185Z,38.80
2019-03-03T13:30:32.309Z,39.00
2019-03-03T13:33:18.813Z,39.50
2019-03-03T13:36:09.106Z,36.80
2019-03-03T13:39:09.062Z,35.00
2019-03-03T13:44:31.465Z,33.50
2019-03-03T13:47:00.190Z,35.00
2019-03-03T13:49:29.019Z,35.00
2019-03-03T13:51:57.791Z,34.50
2019-03-03T13:54:26.604Z,34.90
2019-03-03T13:56:55.400Z,34.40
2019-03-03T13:59:24.201Z,34.50
2019-03-03T14:01:53.002Z,33.80
2019-03-03T14:06:50.293Z,32.40
2019-03-03T14:09:19.059Z,34.70
2019-03-03T14:11:47.760Z,35.10
2019-03-03T14:14:16.588Z,35.50
2019-03-03T14:16:45.377Z,35.10
2019-03-03T14:19:14.359Z,34.90
2019-03-03T14:21:43.060Z,35.80
2019-03-03T14:24:11.966Z,34.90
2019-03-03T14:29:09.575Z,34.90
2019-03-03T14:31:38.329Z,34.40
2019-03-03T14:34:07.391Z,34.70
2019-03-03T14:36:36.210Z,35.20
2019-03-03T14:39:05.912Z,35.10
2019-03-03T14:41:34.697Z,35.00
2019-03-03T14:44:03.539Z,35.60
2019-03-03T14:51:29.436Z,35.00
2019-03-03T14:53:58.236Z,35.30
2019-03-03T14:56:29.590Z,35.30
2019-03-03T14:58:58.314Z,36.20
2019-03-03T15:01:27.493Z,36.50
2019-03-03T15:03:56.243Z,36.50
2019-03-03T15:06:25.538Z,35.60
2019-03-03T15:11:22.683Z,35.40
2019-03-03T15:13:51.559Z,36.40
2019-03-03T15:16:20.318Z,36.60
2019-03-03T15:18:49.183Z,36.70
2019-03-03T15:21:24.698Z,36.40
2019-03-03T15:23:48.598Z,36.60
2019-03-03T15:26:17.883Z,36.80
2019-03-03T15:28:46.711Z,36.20
2019-03-03T15:33:44.458Z,36.50
2019-03-03T15:36:13.542Z,37.10
2019-03-03T15:38:42.366Z,37.70
2019-03-03T15:41:11.347Z,37.30
2019-03-03T15:43:40.170Z,37.50
2019-03-03T15:46:09.415Z,37.60
2019-03-03T15:48:38.850Z,37.90
2019-03-03T15:51:07.675Z,40.00
2019-03-03T15:56:05.254Z,38.20
2019-03-03T15:58:34.359Z,39.00
2019-03-03T16:01:03.109Z,38.90
2019-03-03T16:03:31.909Z,37.50
2019-03-03T16:06:00.706Z,38.20
2019-03-03T16:08:29.450Z,37.60
2019-03-03T16:10:58.628Z,37.50
2019-03-03T16:13:27.358Z,38.70
2019-03-03T16:18:24.656Z,37.60
2019-03-03T16:20:54.438Z,38.60
2019-03-03T16:23:23.200Z,38.60
2019-03-03T16:25:52.021Z,39.10
2019-03-03T16:28:21.491Z,39.80
2019-03-03T16:30:50.205Z,39.70
2019-03-03T16:33:20.900Z,39.30
2019-03-03T16:38:17.780Z,40.10
2019-03-03T16:40:46.847Z,40.80
2019-03-03T16:43:15.717Z,41.30
2019-03-03T16:45:44.450Z,41.50
2019-03-03T16:48:13.280Z,42.10
2019-03-03T16:50:42.072Z,43.50
2019-03-03T16:53:10.807Z,44.30
2019-03-03T16:55:39.618Z,44.00
2019-03-03T17:00:36.962Z,44.10
2019-03-03T17:03:05.772Z,44.80
2019-03-03T17:05:35.199Z,45.40
2019-03-03T17:08:04.703Z,44.80
2019-03-03T17:10:34.090Z,44.70
2019-03-03T17:13:03.979Z,45.00
2019-03-03T17:15:33.828Z,44.80
2019-03-03T17:18:03.176Z,45.50
2019-03-03T17:20:31.961Z,46.10
2019-03-03T17:23:00.792Z,46.20
2019-03-03T17:25:29.883Z,46.70
2019-03-03T17:27:58.651Z,47.00
2019-03-03T17:30:27.784Z,46.90
2019-03-03T17:32:56.555Z,47.40
2019-03-03T17:35:25.286Z,47.00
2019-03-03T17:37:56.378Z,48.00
2019-03-03T17:42:53.414Z,49.00
2019-03-03T17:45:22.195Z,49.40
2019-03-03T17:47:51.115Z,49.50
2019-03-03T17:50:20.546Z,50.50
2019-03-03T17:52:49.365Z,51.00
2019-03-03T17:55:18.272Z,51.50
2019-03-03T17:57:47.014Z,51.70
2019-03-03T18:00:19.020Z,51.60
2019-03-03T18:05:17.269Z,52.40
2019-03-03T18:07:46.111Z,53.30
2019-03-03T18:10:14.938Z,53.40
2019-03-03T18:12:43.723Z,52.80
2019-03-03T18:15:12.458Z,52.30
2019-03-03T18:17:41.193Z,53.20
2019-03-03T18:20:10.893Z,52.90
2019-03-03T18:22:40.018Z,52.80
2019-03-03T18:27:37.685Z,53.10
2019-03-03T18:30:08.542Z,53.70
2019-03-03T18:32:37.273Z,54.30
2019-03-03T18:35:06.303Z,55.70
2019-03-03T18:37:35.338Z,54.90
2019-03-03T18:40:04.669Z,54.50
2019-03-03T18:42:33.399Z,55.00
2019-03-03T18:45:02.176Z,54.30
2019-03-03T18:49:59.265Z,53.60
2019-03-03T18:52:28.483Z,54.10
2019-03-03T18:54:57.302Z,54.10
2019-03-03T18:57:26.404Z,54.00
2019-03-03T18:59:55.609Z,54.00
2019-03-03T19:02:24.406Z,53.50
2019-03-03T19:04:53.153Z,53.80
2019-03-03T19:07:21.984Z,53.40
2019-03-03T19:12:19.837Z,53.40
2019-03-03T19:14:48.606Z,53.70
2019-03-03T19:17:17.665Z,53.90
2019-03-03T19:19:46.417Z,54.40
2019-03-03T19:22:15.534Z,55.50
2019-03-03T19:24:44.285Z,55.20
2019-03-03T19:27:13.077Z,55.10
2019-03-03T19:29:41.834Z,54.60
2019-03-03T19:34:38.971Z,54.70
2019-03-03T19:37:07.991Z,55.80
2019-03-03T19:39:36.961Z,55.70
2019-03-03T19:42:05.829Z,56.40
2019-03-03T19:44:34.699Z,56.60
2019-03-03T19:47:03.443Z,57.70
2019-03-03T19:49:32.208Z,57.50
2019-03-03T19:52:00.976Z,56.90
2019-03-03T19:56:58.080Z,57.00
2019-03-03T19:59:26.823Z,58.00
2019-03-03T20:01:55.698Z,58.60
2019-03-03T20:04:24.504Z,59.60
2019-03-03T20:06:53.354Z,59.70
2019-03-03T20:09:22.191Z,60.10
2019-03-03T20:11:50.967Z,59.80
2019-03-03T20:16:48.128Z,60.10
2019-03-03T20:19:16.907Z,61.20
2019-03-03T20:21:46.765Z,61.60
2019-03-03T20:24:15.642Z,62.30
2019-03-03T20:26:44.424Z,62.60
2019-03-03T20:29:13.181Z,62.70
2019-03-03T20:31:42.360Z,63.20
2019-03-03T20:34:12.112Z,63.20
2019-03-03T20:39:09.672Z,63.20
2019-03-03T20:41:38.788Z,63.30
2019-03-03T20:44:07.694Z,63.60
2019-03-03T20:46:36.507Z,64.10
2019-03-03T20:49:05.412Z,64.10
2019-03-03T20:51:34.263Z,64.50
2019-03-03T20:54:03.013Z,65.30
2019-03-03T20:56:31.733Z,65.20
2019-03-03T21:01:29.014Z,65.40
2019-03-03T21:03:57.777Z,67.40
2019-03-03T21:06:26.721Z,66.50
2019-03-03T21:08:55.651Z,66.50
2019-03-03T21:11:24.537Z,66.70
2019-03-03T21:13:53.270Z,67.40
2019-03-03T21:16:22.116Z,66.30
2019-03-03T21:18:50.859Z,66.30
2019-03-03T21:23:48.016Z,67.00
2019-03-03T21:26:16.881Z,68.20
2019-03-03T21:28:45.626Z,68.00
2019-03-03T21:31:14.388Z,68.20
2019-03-03T21:33:43.244Z,68.20
2019-03-03T21:36:11.974Z,67.00
2019-03-03T21:38:40.713Z,67.60
2019-03-03T21:41:09.483Z,67.70
2019-03-03T21:46:06.637Z,68.10
2019-03-03T21:48:35.404Z,68.40
2019-03-03T21:51:04.199Z,68.60
2019-03-03T21:53:32.929Z,69.40
2019-03-03T21:56:02.199Z,70.00
2019-03-03T21:58:31.005Z,69.70
2019-03-03T22:00:59.830Z,70.00
2019-03-03T22:03:29.883Z,69.50
2019-03-03T22:08:27.438Z,70.10
2019-03-03T22:10:56.436Z,70.00
2019-03-03T22:13:25.851Z,70.40
2019-03-03T22:15:55.130Z,69.90
2019-03-03T22:18:31.284Z,69.40
2019-03-03T22:21:00.151Z,69.60
2019-03-03T22:23:28.958Z,69.60
2019-03-03T22:28:26.479Z,70.00
2019-03-03T22:30:57.481Z,69.50
2019-03-03T22:33:28.101Z,69.20
2019-03-03T22:35:57.045Z,68.70
2019-03-03T22:40:57.156Z,69.40
2019-03-03T22:45:55.162Z,67.80
2019-03-03T22:50:55.136Z,68.40
2019-03-03T22:53:25.979Z,68.20
2019-03-03T22:55:55.038Z,68.80
2019-03-03T22:58:24.319Z,68.60
2019-03-03T23:01:04.799Z,69.00
2019-03-03T23:03:41.089Z,69.20
2019-03-03T23:06:34.669Z,68.80
2019-03-03T23:09:45.674Z,69.40
2019-03-03T23:13:03.857Z,69.10
2019-03-03T23:15:46.731Z,69.60
2019-03-03T23:18:39.279Z,69.40
2019-03-03T23:21:45.814Z,70.10
2019-03-03T23:27:14.539Z,71.10
2019-03-03T23:29:43.689Z,70.90
2019-03-03T23:32:12.612Z,70.70
2019-03-03T23:42:07.330Z,70.50
2019-03-03T23:44:38.274Z,70.90
2019-03-03T23:49:35.856Z,71.60
2019-03-03T23:52:08.108Z,71.70
2019-03-03T23:54:37.117Z,71.50
2019-03-03T23:59:34.531Z,71.50
